Impacts METAR Board INFO
IDs:

KSFO - San Francisco Intl, CA, US

Updated at: 1214 UTC 18 Nov 2017
Potential Impact None Slight Moderate High
Time18/00Z 18/01Z 18/02Z 18/03Z 18/04Z 18/05Z 18/06Z 18/07Z 18/08Z 18/09Z 18/10Z 18/11Z 18/12Z
VIS10 10 10 10 10 10 10 10 10 10 10 10 10
CIG-- -- -- -- -- -- -- -- -- -- -- -- --
CoverFEWFEWCLRCLRCLRCLRCLRCLRCLRCLRCLRCLRCLR
FltCatVFRVFRVFRVFRVFRVFRVFRVFRVFRVFRVFRVFRVFR
WX--------------------------
WDir36020405050406018002102902600
WSpd14 12 10 8 10 11 8 3 0 3 6 3 0
WGst-- -- -- -- -- -- -- -- -- -- -- -- --
Raw hourly METARs
KSFO 172356Z 36014KT 10SM FEW035 16/07 A3015 RMK AO2 SLP210 T01560072 10161 20144 58008
KSFO 180056Z 02012KT 10SM FEW030 15/07 A3015 RMK AO2 SLP210 T01500072
KSFO 180156Z 04010KT 10SM CLR 15/06 A3017 RMK AO2 SLP216 T01500061
KSFO 180256Z 05008KT 10SM CLR 14/04 A3019 RMK AO2 SLP221 T01440044 53012
KSFO 180356Z 05010KT 10SM CLR 14/04 A3020 RMK AO2 SLP225 T01440044
KSFO 180456Z 04011KT 10SM CLR 14/04 A3020 RMK AO2 SLP225 T01440039
KSFO 180556Z 06008KT 10SM CLR 14/04 A3020 RMK AO2 SLP228 T01390039 10156 20139 51006
KSFO 180656Z 18003KT 10SM CLR 11/04 A3021 RMK AO2 SLP229 T01110039
KSFO 180756Z 00000KT 10SM CLR 12/04 A3020 RMK AO2 SLP227 T01170039 401610106
KSFO 180856Z 21003KT 10SM CLR 10/04 A3020 RMK AO2 SLP227 T01000039 58000
KSFO 180956Z 29006KT 10SM CLR 08/03 A3021 RMK AO2 SLP228 T00830033
KSFO 181056Z 26003KT 10SM CLR 08/03 A3021 RMK AO2 SLP229 T00830033
KSFO 181156Z 00000KT 10SM CLR 07/03 A3020 RMK AO2 SLP227 70001 T00720033 10139 20067 50000